Aeroporto :
LOGIN :

Iscrizione | Disclaimer

   EN    FR    IT 

 










Sommario :    VFR   VFR Marginale   IFR   IFR Intensivo   IFR Molto Intensivo
Visibilità : 
Base nubi : 
>= 8 km
>= 3000ft
5 / 8 km
1000 / 3000 ft
1500m / 5 km
500 / 1000 ft
800 / 1500m
200 / 500 ft
< 800m
< 200 ft
Simboli :   Temporali  Nebbia  Neve Forte  Precipitazioni Forti  Vento > 20 kt
SIGMETs :   Varie  Temporali  Ghiacco  Turbolenza  Onda orograficha  Ceneri Vulcaniche







- Altitudine del aeroporto : 357 ft
- Codice IATA : TUF
- Carte del aeroporto


LFOT - Tours

ULTIMO METAR :
  • 181130Z AUTO 13007KT CAVOK 06/03 Q1015 NOSIG

METARs OBSOLETI :
  • 181100Z AUTO 14010KT CAVOK 06/03 Q1016 NOSIG
  • 181030Z AUTO 13009KT CAVOK 05/03 Q1016 NOSIG
  • 181000Z AUTO 13008KT CAVOK 05/03 Q1017 NOSIG
  • 180930Z AUTO 12006KT CAVOK 05/03 Q1017 NOSIG
  • 180900Z AUTO 14005KT CAVOK 04/03 Q1017 NOSIG

TAF TAF LFOT
Valido dal 18 a 12 ore il 19 a 12 ore UTC


181100Z 1812/1912 15010KT CAVOK
BECMG 1818/1821 20012KT 9999 -RA BKN020
TEMPO 1821/1901 20015G25KT -RA BKN008
BECMG 1900/1902 22010KT 9999 NSW SCT011 BKN040
PROB30
TEMPO 1902/1908 BKN009
TEMPO 1907/1912 4000 -SHRA SCT011 BKN030
Nessun NOTAM noto per questo aeroporto.



MetMap, La meteo Aeronautica in un colpo d'occhio ! - Copyright ORBIFLY Dicembre 2007 - Disclaimer

ORBIFLY MET'MAP TEAM :

Programmazione e sviluppo : Alexandra Zaïnal
Concezione e sviluppo : Baudouin d'Aumeries
Co-Programmazione e sviluppo : Marc-Olivier Méhu
Supporto tecnico e logistico : Manuel Goepfert
Aiuto per la traduzione : Arnaldo La Scala

Contatto : metmap@orbifly.com




FONTI E CREDITI :

   NOAA